createdAt,value
2023-04-01T00:04:08.506Z,68.99
2023-04-01T00:09:11.341Z,70.01
2023-04-01T00:14:15.611Z,69.83
2023-04-01T00:19:18.306Z,71.57
2023-04-01T00:24:21.064Z,69.44
2023-04-01T00:29:30.169Z,69.12
2023-04-01T00:34:32.968Z,69.19
2023-04-01T00:39:37.437Z,70.19
2023-04-01T00:44:42.135Z,71.08
2023-04-01T00:49:48.602Z,69.11
2023-04-01T00:54:57.897Z,71.54
2023-04-01T01:00:02.235Z,73.24
2023-04-01T01:05:06.593Z,73.54
2023-04-01T01:10:16.573Z,72.75
2023-04-01T01:15:26.625Z,74.06
2023-04-01T01:20:57.524Z,72.41
2023-04-01T01:26:19.300Z,71.82
2023-04-01T01:31:27.141Z,71.26
2023-04-01T01:36:35.621Z,72.26
2023-04-01T01:41:43.900Z,69.87
2023-04-01T01:46:47.748Z,70.97
2023-04-01T01:51:51.844Z,71.70
2023-04-01T01:57:08.460Z,70.23
2023-04-01T02:02:14.958Z,71.82
2023-04-01T02:07:24.288Z,70.78
2023-04-01T02:12:27.351Z,70.41
2023-04-01T02:17:33.348Z,73.23
2023-04-01T02:22:43.819Z,70.62
2023-04-01T02:27:48.241Z,70.00
2023-04-01T02:32:51.645Z,69.55
2023-04-01T02:37:57.067Z,69.63
2023-04-01T02:43:00.042Z,71.75
2023-04-01T02:48:02.838Z,70.69
2023-04-01T02:53:07.288Z,71.43
2023-04-01T02:58:10.363Z,74.41
2023-04-01T03:03:14.572Z,75.03
2023-04-01T03:08:18.768Z,77.55
2023-04-01T03:13:21.532Z,75.43
2023-04-01T03:18:24.365Z,73.28
2023-04-01T03:23:28.965Z,75.56
2023-04-01T03:28:31.710Z,75.92
2023-04-01T03:33:34.985Z,75.11
2023-04-01T03:38:39.198Z,74.04
2023-04-01T03:43:42.054Z,75.17
2023-04-01T03:48:44.910Z,75.55
2023-04-01T03:53:49.195Z,73.66
2023-04-01T03:58:51.994Z,74.17
2023-04-01T04:03:55.458Z,73.09
2023-04-01T04:09:01.355Z,71.71
2023-04-01T04:14:06.422Z,71.46
2023-04-01T04:19:09.447Z,72.96
2023-04-01T04:24:14.026Z,72.97
2023-04-01T04:29:35.355Z,73.53
2023-04-01T04:34:38.400Z,74.41
2023-04-01T04:39:42.600Z,75.12
2023-04-01T04:44:45.538Z,74.16
2023-04-01T04:49:48.342Z,75.18
2023-04-01T04:54:52.533Z,75.94
2023-04-01T04:59:55.522Z,76.42
2023-04-01T05:05:27.548Z,76.19
2023-04-01T05:10:32.415Z,76.02
2023-04-01T05:15:35.467Z,76.62
2023-04-01T05:20:38.736Z,76.52
2023-04-01T05:25:43.073Z,78.48
2023-04-01T05:30:46.506Z,77.27
2023-04-01T05:36:08.378Z,75.85
2023-04-01T05:41:12.518Z,74.72
2023-04-01T05:46:19.187Z,73.84
2023-04-01T05:51:27.888Z,73.10
2023-04-01T05:56:31.975Z,75.46
2023-04-01T06:01:35.719Z,76.44
2023-04-01T06:06:38.643Z,74.82
2023-04-01T06:11:59.674Z,75.06
2023-04-01T06:17:25.662Z,76.08
2023-04-01T06:23:03.977Z,75.36
2023-04-01T06:28:40.423Z,75.83
2023-04-01T06:33:59.142Z,74.33
2023-04-01T06:39:17.951Z,76.43
2023-04-01T06:44:31.164Z,76.70
2023-04-01T06:50:01.597Z,74.25
2023-04-01T06:55:27.956Z,77.58
2023-04-01T07:00:58.365Z,77.98
2023-04-01T07:06:05.271Z,72.60
2023-04-01T07:11:18.743Z,73.42
2023-04-01T07:16:46.080Z,71.75
2023-04-01T07:21:52.078Z,74.02
2023-04-01T07:27:03.679Z,75.54
2023-04-01T07:32:24.283Z,74.37
2023-04-01T07:37:33.053Z,72.58
2023-04-01T07:42:47.704Z,73.39
2023-04-01T07:48:08.938Z,73.55
2023-04-01T07:53:20.317Z,75.53
2023-04-01T07:58:36.599Z,75.60
2023-04-01T08:04:00.420Z,76.02
2023-04-01T08:09:11.258Z,75.33
2023-04-01T08:14:57.966Z,76.43
2023-04-01T08:20:30.030Z,72.54
2023-04-01T08:25:36.170Z,75.15
2023-04-01T08:30:44.868Z,70.94
2023-04-01T08:35:55.045Z,73.63
2023-04-01T08:41:20.697Z,74.11
2023-04-01T08:47:22.372Z,76.07
2023-04-01T08:52:36.664Z,74.98
2023-04-01T08:57:54.029Z,70.80
2023-04-01T09:04:00.773Z,71.07
2023-04-01T09:09:36.203Z,74.37
2023-04-01T09:15:20.433Z,74.51
2023-04-01T09:20:43.618Z,73.09
2023-04-01T09:26:07.101Z,72.15
2023-04-01T09:31:27.519Z,72.04
2023-04-01T09:37:03.188Z,70.12
2023-04-01T09:42:28.013Z,67.64
2023-04-01T09:47:59.347Z,70.05
2023-04-01T09:53:16.698Z,69.96
2023-04-01T09:59:03.989Z,70.24
2023-04-01T10:05:06.479Z,69.19
2023-04-01T10:10:46.943Z,67.91
2023-04-01T10:16:22.921Z,68.51
2023-04-01T10:21:59.944Z,68.39
2023-04-01T10:27:23.282Z,66.22
2023-04-01T10:33:29.912Z,69.66
2023-04-01T10:39:06.115Z,66.66
2023-04-01T10:44:51.044Z,65.09
2023-04-01T10:50:28.145Z,67.96
2023-04-01T10:56:13.468Z,67.09
2023-04-01T11:02:11.342Z,67.75
2023-04-01T11:08:26.860Z,66.62
2023-04-01T11:14:01.527Z,66.22
2023-04-01T11:19:27.003Z,69.61
2023-04-01T11:24:59.713Z,70.67
2023-04-01T11:30:31.185Z,72.24
2023-04-01T11:36:16.333Z,73.66
2023-04-01T11:41:32.611Z,70.76
2023-04-01T11:47:07.403Z,69.48
2023-04-01T11:52:28.124Z,68.79
2023-04-01T11:57:53.096Z,67.93
2023-04-01T12:03:14.185Z,70.09
2023-04-01T12:08:33.477Z,69.55
2023-04-01T12:13:46.676Z,68.72
2023-04-01T12:18:56.507Z,69.03
2023-04-01T12:24:27.022Z,69.35
2023-04-01T12:29:54.540Z,67.88
2023-04-01T12:35:15.132Z,67.38
2023-04-01T12:41:02.884Z,67.66
2023-04-01T12:46:17.257Z,67.31
2023-04-01T12:51:33.086Z,70.24
2023-04-01T12:56:45.410Z,68.39
2023-04-01T13:02:03.584Z,67.84
2023-04-01T13:07:28.397Z,66.20
2023-04-01T13:12:51.777Z,67.60
2023-04-01T13:18:05.554Z,66.15
2023-04-01T13:23:21.165Z,67.31
2023-04-01T13:28:27.898Z,66.04
2023-04-01T13:33:41.254Z,69.82
2023-04-01T13:39:05.154Z,68.92
2023-04-01T13:44:14.997Z,65.08
2023-04-01T13:49:51.404Z,64.98
2023-04-01T13:55:20.510Z,64.04
2023-04-01T14:00:35.910Z,62.16
2023-04-01T14:05:53.618Z,65.61
2023-04-01T14:11:15.365Z,64.75
2023-04-01T14:16:36.074Z,65.34
2023-04-01T14:21:48.153Z,64.94
2023-04-01T14:27:14.629Z,63.64
2023-04-01T14:32:29.272Z,62.13
2023-04-01T14:38:19.373Z,62.43
2023-04-01T14:43:53.895Z,64.59
2023-04-01T14:49:02.050Z,63.57
2023-04-01T14:54:10.218Z,67.47
2023-04-01T14:59:28.372Z,70.78
2023-04-01T15:04:49.734Z,71.58
2023-04-01T15:10:01.373Z,72.39
2023-04-01T15:15:25.944Z,73.12
2023-04-01T15:20:47.627Z,71.79
2023-04-01T15:26:09.788Z,71.18
2023-04-01T15:31:17.929Z,73.33
2023-04-01T15:36:31.090Z,72.28
2023-04-01T15:41:43.627Z,73.59
2023-04-01T15:46:50.727Z,73.64
2023-04-01T15:52:05.123Z,73.18
2023-04-01T15:57:30.886Z,71.64
2023-04-01T16:02:40.546Z,74.62
2023-04-01T16:07:57.344Z,74.41
2023-04-01T16:13:12.494Z,72.57
2023-04-01T16:18:42.802Z,73.80
2023-04-01T16:23:50.690Z,72.85
2023-04-01T16:28:59.755Z,73.33
2023-04-01T16:34:11.047Z,73.24
2023-04-01T16:39:32.051Z,71.55
2023-04-01T16:44:50.648Z,72.32
2023-04-01T16:50:00.360Z,73.52
2023-04-01T16:55:14.491Z,72.83
2023-04-01T17:00:25.885Z,72.02
2023-04-01T17:05:44.369Z,73.48
2023-04-01T17:10:59.029Z,70.95
2023-04-01T17:16:16.869Z,71.03
2023-04-01T17:21:27.732Z,69.04
2023-04-01T17:26:39.288Z,69.97
2023-04-01T17:31:48.360Z,67.80
2023-04-01T17:37:08.616Z,68.50
2023-04-01T17:42:16.814Z,65.08
2023-04-01T17:47:41.128Z,64.70
2023-04-01T17:52:50.740Z,64.76
2023-04-01T17:58:02.567Z,65.98
2023-04-01T18:03:19.147Z,65.20
2023-04-01T18:08:38.973Z,64.67
2023-04-01T18:14:25.557Z,63.63
2023-04-01T18:19:37.987Z,65.20
2023-04-01T18:24:48.092Z,64.74
2023-04-01T18:29:54.273Z,63.83
2023-04-01T18:35:04.530Z,63.48
2023-04-01T18:40:23.432Z,63.08
2023-04-01T18:45:30.971Z,62.02
2023-04-01T18:50:45.406Z,62.44
2023-04-01T18:55:54.968Z,62.23
2023-04-01T19:01:18.315Z,64.14
2023-04-01T19:06:26.886Z,62.49
2023-04-01T19:11:41.210Z,60.27
2023-04-01T19:16:55.353Z,60.20
2023-04-01T19:22:41.901Z,58.35
2023-04-01T19:27:51.566Z,58.71
2023-04-01T19:33:03.602Z,58.19
2023-04-01T19:38:12.630Z,56.49
2023-04-01T19:43:29.478Z,56.50
2023-04-01T19:48:46.631Z,56.72
2023-04-01T19:54:00.406Z,56.72
2023-04-01T19:59:12.785Z,56.78
2023-04-01T20:04:19.165Z,56.48
2023-04-01T20:09:40.737Z,55.38
2023-04-01T20:14:49.149Z,54.61
2023-04-01T20:19:59.831Z,54.98
2023-04-01T20:25:13.804Z,56.57
2023-04-01T20:30:55.444Z,55.15
2023-04-01T20:36:08.553Z,55.61
2023-04-01T20:41:15.408Z,55.48
2023-04-01T20:46:24.605Z,56.28
2023-04-01T20:51:31.862Z,56.23
2023-04-01T20:56:47.294Z,56.01
2023-04-01T21:02:00.163Z,56.38
2023-04-01T21:07:13.132Z,56.28
2023-04-01T21:12:29.481Z,55.99
2023-04-01T21:17:44.006Z,56.99
2023-04-01T21:23:01.152Z,56.46
2023-04-01T21:28:20.013Z,55.41
2023-04-01T21:33:39.515Z,56.28
2023-04-01T21:38:58.146Z,56.45
2023-04-01T21:44:23.368Z,55.94
2023-04-01T21:49:48.587Z,56.08
2023-04-01T21:55:34.528Z,55.84
2023-04-01T22:00:40.925Z,57.15
2023-04-01T22:05:53.399Z,56.85
2023-04-01T22:11:04.477Z,57.69
2023-04-01T22:16:16.330Z,58.89
2023-04-01T22:21:28.048Z,57.79
2023-04-01T22:26:38.718Z,56.69
2023-04-01T22:31:47.253Z,57.16
2023-04-01T22:36:58.370Z,57.36
2023-04-01T22:42:12.544Z,56.71
2023-04-01T22:47:25.704Z,57.39
2023-04-01T22:52:37.758Z,56.78
2023-04-01T22:57:46.861Z,57.66
2023-04-01T23:03:03.755Z,57.59
2023-04-01T23:08:47.068Z,58.86
2023-04-01T23:13:54.761Z,59.29
2023-04-01T23:19:04.711Z,57.94
2023-04-01T23:24:18.981Z,57.25
2023-04-01T23:29:23.124Z,58.39
2023-04-01T23:34:33.898Z,59.83
2023-04-01T23:39:40.447Z,58.26
2023-04-01T23:44:45.365Z,59.19
2023-04-01T23:49:51.521Z,57.21
2023-04-01T23:54:58.546Z,57.02
